Time;durP1;ratioP1;P1;durP2;ratioP2;P2;SDS_P1;SDS_P2;PMS_P1;PMS_P2;Temp;Humidity;BMP_temperature;BMP_pressure;BME280_temperature;BME280_humidity;BME280_pressure;Samples;Min_cycle;Max_cycle;Signal;HPM_P1;HPM_P2
2023/05/07 00:01:06;;;;;;;4.75;2.60;;;20.80;60.70;;;;;;5074837;28;20522;-68
2023/05/07 00:03:32;;;;;;;3.60;2.28;;;20.80;60.60;;;;;;5075859;28;20082;-68
2023/05/07 00:05:58;;;;;;;4.57;2.50;;;20.80;60.60;;;;;;5075591;28;20114;-68
2023/05/07 00:08:23;;;;;;;4.55;2.15;;;20.80;60.60;;;;;;5074838;28;20163;-68
2023/05/07 00:10:49;;;;;;;3.97;2.38;;;20.80;60.60;;;;;;5074182;28;20411;-69
2023/05/07 00:13:14;;;;;;;5.10;2.70;;;20.80;61.20;;;;;;5075476;28;20125;-68
2023/05/07 00:15:40;;;;;;;4.93;2.55;;;20.80;60.60;;;;;;5074852;28;20043;-68
2023/05/07 00:18:05;;;;;;;6.15;3.33;;;20.80;60.60;;;;;;5075196;28;20606;-68
2023/05/07 00:20:31;;;;;;;4.70;2.63;;;20.80;60.60;;;;;;5074933;28;20051;-69
2023/05/07 00:22:56;;;;;;;4.30;2.80;;;20.80;60.50;;;;;;5075486;28;20549;-69
2023/05/07 00:25:22;;;;;;;4.00;2.70;;;20.80;60.50;;;;;;5074776;28;20060;-68
2023/05/07 00:27:48;;;;;;;6.07;3.10;;;20.80;60.50;;;;;;5074626;28;20048;-70
2023/05/07 00:30:13;;;;;;;4.43;2.65;;;20.70;60.50;;;;;;5073717;28;20055;-68
2023/05/07 00:32:39;;;;;;;4.97;2.80;;;20.70;60.40;;;;;;5075234;28;20045;-68
2023/05/07 00:35:05;;;;;;;4.65;2.63;;;20.70;60.40;;;;;;5074770;28;20131;-69
2023/05/07 00:37:31;;;;;;;4.70;2.50;;;20.70;60.40;;;;;;5074601;28;20120;-68
2023/05/07 00:39:57;;;;;;;3.65;2.50;;;20.70;60.40;;;;;;5075363;28;20444;-68
2023/05/07 00:42:22;;;;;;;5.82;2.70;;;20.70;60.40;;;;;;5073894;28;20040;-68
2023/05/07 00:44:48;;;;;;;3.85;2.20;;;20.70;60.40;;;;;;5075165;28;20048;-68
2023/05/07 00:47:13;;;;;;;4.57;2.85;;;20.70;60.40;;;;;;5074560;28;20041;-68
2023/05/07 00:49:41;;;;;;;5.47;2.58;;;20.70;60.40;;;;;;5074253;28;20048;-68
2023/05/07 00:52:07;;;;;;;4.00;2.28;;;20.70;60.40;;;;;;5073392;28;20044;-68
2023/05/07 00:54:33;;;;;;;3.47;2.38;;;20.70;60.30;;;;;;5074924;28;20110;-68
2023/05/07 00:57:00;;;;;;;4.47;2.55;;;20.70;60.30;;;;;;5072180;28;20392;-68
2023/05/07 00:59:25;;;;;;;4.07;2.28;;;20.70;60.30;;;;;;5074180;28;20048;-68
2023/05/07 01:01:51;;;;;;;4.47;2.78;;;20.70;60.30;;;;;;5074573;28;20468;-68
2023/05/07 01:04:17;;;;;;;5.13;2.75;;;20.70;60.30;;;;;;5073947;28;20094;-69
2023/05/07 01:06:43;;;;;;;5.97;2.60;;;20.70;60.30;;;;;;5074693;28;20036;-68
2023/05/07 01:09:09;;;;;;;3.60;2.50;;;20.70;60.20;;;;;;5056532;28;20510;-68
2023/05/07 01:11:34;;;;;;;4.63;2.83;;;20.70;60.20;;;;;;5073418;28;20044;-68
2023/05/07 01:14:00;;;;;;;6.18;2.80;;;20.70;60.20;;;;;;5074936;28;20040;-68
2023/05/07 01:16:26;;;;;;;5.07;3.05;;;20.60;60.20;;;;;;5089335;28;20047;-68
2023/05/07 01:18:52;;;;;;;4.90;2.67;;;20.60;60.20;;;;;;5076199;28;20555;-68
2023/05/07 01:21:17;;;;;;;3.97;2.88;;;20.60;60.20;;;;;;5089973;28;20127;-68
2023/05/07 01:23:43;;;;;;;4.00;2.53;;;20.60;60.10;;;;;;5073464;28;20045;-68
2023/05/07 01:26:09;;;;;;;3.97;2.53;;;20.60;60.20;;;;;;5072951;28;20063;-69
2023/05/07 01:28:35;;;;;;;4.50;2.92;;;20.60;60.10;;;;;;5074455;28;20120;-68
2023/05/07 01:31:02;;;;;;;4.53;2.80;;;20.60;60.10;;;;;;5073357;28;20048;-68
2023/05/07 01:33:28;;;;;;;5.10;2.60;;;20.60;60.00;;;;;;5052710;28;20041;-68
2023/05/07 01:35:53;;;;;;;4.90;2.97;;;20.60;60.10;;;;;;5053116;28;20040;-68
2023/05/07 01:38:20;;;;;;;4.15;2.60;;;20.60;60.10;;;;;;5070322;28;20040;-68
2023/05/07 01:40:45;;;;;;;4.68;2.90;;;20.60;60.10;;;;;;5072711;28;20511;-68
2023/05/07 01:43:11;;;;;;;4.28;2.75;;;20.60;60.00;;;;;;5073386;28;20044;-68
2023/05/07 01:45:36;;;;;;;4.72;2.75;;;20.60;60.00;;;;;;5072082;28;20081;-68
2023/05/07 01:48:02;;;;;;;4.88;2.90;;;20.60;60.00;;;;;;5052764;28;20037;-68
2023/05/07 01:50:28;;;;;;;4.50;2.65;;;20.60;60.00;;;;;;5053552;28;20124;-68
2023/05/07 01:52:54;;;;;;;3.80;2.30;;;20.60;60.00;;;;;;5065821;28;20064;-68
2023/05/07 01:55:19;;;;;;;4.60;2.95;;;20.60;60.00;;;;;;5072210;28;20480;-69
2023/05/07 01:57:45;;;;;;;5.07;2.70;;;20.60;60.00;;;;;;5072217;28;20072;-68
2023/05/07 02:00:11;;;;;;;5.15;2.80;;;20.60;60.00;;;;;;5072599;28;20036;-68
2023/05/07 02:02:37;;;;;;;4.45;2.95;;;20.60;60.00;;;;;;5073599;28;20072;-68
2023/05/07 02:05:03;;;;;;;4.55;2.75;;;20.50;60.00;;;;;;5072745;28;20044;-69
2023/05/07 02:07:29;;;;;;;4.90;2.92;;;20.50;60.00;;;;;;5071482;28;20119;-68
2023/05/07 02:09:57;;;;;;;4.80;2.70;;;20.50;59.90;;;;;;5073378;28;20507;-68
2023/05/07 02:12:23;;;;;;;;;;;20.50;59.90;;;;;;5073484;28;20059;-68
2023/05/07 02:14:49;;;;;;;5.13;2.78;;;20.50;59.80;;;;;;5072807;28;20352;-68
2023/05/07 02:17:14;;;;;;;5.72;2.88;;;20.50;60.00;;;;;;5071712;28;20123;-68
2023/05/07 02:19:40;;;;;;;3.85;2.63;;;20.50;60.00;;;;;;5073301;28;20223;-68
2023/05/07 02:22:06;;;;;;;4.78;2.95;;;20.50;59.90;;;;;;5070665;28;20040;-68
2023/05/07 02:24:31;;;;;;;4.50;2.47;;;20.50;59.90;;;;;;5073014;28;20115;-68
2023/05/07 02:26:57;;;;;;;5.00;2.83;;;20.50;59.90;;;;;;5072880;28;20037;-68
2023/05/07 02:29:22;;;;;;;4.40;2.70;;;20.50;59.90;;;;;;5072445;28;20115;-68
2023/05/07 02:31:50;;;;;;;3.30;2.50;;;20.50;59.90;;;;;;5071626;28;20122;-68
2023/05/07 02:34:16;;;;;;;4.85;3.08;;;20.50;59.90;;;;;;5072088;28;20064;-68
2023/05/07 02:36:42;;;;;;;4.65;3.10;;;20.50;59.90;;;;;;5072969;28;20044;-68
2023/05/07 02:39:08;;;;;;;5.15;3.17;;;20.50;59.80;;;;;;5072764;28;20039;-69
2023/05/07 02:41:33;;;;;;;4.60;3.00;;;20.50;59.90;;;;;;5071740;28;20613;-69
2023/05/07 02:43:59;;;;;;;4.78;3.08;;;20.50;59.80;;;;;;5072916;28;20369;-69
2023/05/07 02:46:24;;;;;;;4.72;2.90;;;20.50;59.90;;;;;;5071412;28;20141;-69
2023/05/07 02:48:50;;;;;;;4.45;2.83;;;20.50;59.80;;;;;;5071950;28;20032;-68
2023/05/07 02:51:19;;;;;;;4.55;3.05;;;20.40;59.70;;;;;;5072218;28;20041;-68
2023/05/07 02:53:44;;;;;;;4.97;3.20;;;20.40;59.70;;;;;;5071313;28;20040;-68
2023/05/07 02:56:10;;;;;;;5.20;2.97;;;20.40;59.70;;;;;;5071656;28;20373;-69
2023/05/07 02:58:35;;;;;;;5.00;2.92;;;20.40;59.70;;;;;;5072397;28;20040;-68
2023/05/07 03:01:01;;;;;;;5.07;3.00;;;20.40;59.70;;;;;;5072614;28;20071;-68
2023/05/07 03:03:26;;;;;;;4.25;3.10;;;20.40;59.70;;;;;;5071304;28;20044;-68
2023/05/07 03:05:52;;;;;;;5.13;3.30;;;20.40;59.70;;;;;;5072413;28;20052;-68
2023/05/07 03:08:18;;;;;;;6.07;3.50;;;20.40;59.70;;;;;;5071001;28;20578;-68
2023/05/07 03:10:43;;;;;;;5.57;3.13;;;20.40;59.70;;;;;;5070428;28;20044;-68
2023/05/07 03:13:09;;;;;;;3.92;2.78;;;20.40;59.60;;;;;;5072234;28;20041;-68
2023/05/07 03:15:35;;;;;;;4.57;3.17;;;20.40;59.70;;;;;;5072234;28;20051;-68
2023/05/07 03:18:00;;;;;;;5.05;3.17;;;20.40;59.60;;;;;;5071564;28;20486;-68
2023/05/07 03:20:26;;;;;;;5.15;3.63;;;20.40;59.60;;;;;;5072023;28;20085;-68
2023/05/07 03:22:51;;;;;;;5.13;3.15;;;20.40;59.60;;;;;;5071946;28;20054;-68
2023/05/07 03:25:17;;;;;;;5.00;3.13;;;20.40;59.60;;;;;;5071173;28;20057;-68
2023/05/07 03:27:42;;;;;;;4.85;3.13;;;20.40;59.60;;;;;;5072171;28;20043;-68
2023/05/07 03:30:09;;;;;;;5.57;3.45;;;20.30;59.50;;;;;;5072188;28;20482;-69
2023/05/07 03:32:35;;;;;;;6.25;3.47;;;20.40;59.60;;;;;;5079663;28;20036;-68
2023/05/07 03:35:01;;;;;;;5.18;3.30;;;20.30;59.50;;;;;;5070962;28;20049;-69
2023/05/07 03:37:26;;;;;;;5.97;3.75;;;20.40;59.60;;;;;;5070933;28;20044;-69
2023/05/07 03:39:52;;;;;;;6.85;3.70;;;20.30;59.50;;;;;;5072208;28;20124;-68
2023/05/07 03:42:17;;;;;;;4.82;3.50;;;20.40;59.50;;;;;;5076702;28;20123;-69
2023/05/07 03:44:43;;;;;;;5.20;3.65;;;20.30;59.50;;;;;;5071461;28;20123;-69
2023/05/07 03:47:10;;;;;;;6.10;3.95;;;20.30;59.40;;;;;;5071764;28;20033;-68
2023/05/07 03:49:35;;;;;;;5.72;3.78;;;20.30;59.50;;;;;;5070850;28;20506;-68
2023/05/07 03:52:01;;;;;;;6.18;3.85;;;20.30;59.50;;;;;;5071088;28;20037;-68
2023/05/07 03:54:26;;;;;;;5.47;3.90;;;20.30;59.40;;;;;;5052099;28;20036;-68
2023/05/07 03:56:52;;;;;;;5.65;3.65;;;20.30;59.40;;;;;;5051751;28;20067;-68
2023/05/07 03:59:18;;;;;;;5.68;3.75;;;20.30;59.40;;;;;;5069300;28;20036;-68
2023/05/07 04:01:43;;;;;;;5.72;3.88;;;20.30;59.40;;;;;;5069901;28;20048;-68
2023/05/07 04:04:09;;;;;;;5.40;3.80;;;20.30;59.40;;;;;;5070326;28;20040;-69
2023/05/07 04:06:34;;;;;;;5.50;3.67;;;20.30;59.40;;;;;;5070805;28;20072;-68
2023/05/07 04:09:00;;;;;;;5.80;4.13;;;20.30;59.40;;;;;;5071570;28;20041;-68
2023/05/07 04:11:26;;;;;;;6.00;3.83;;;20.30;59.40;;;;;;5071314;28;20403;-68
2023/05/07 04:13:52;;;;;;;5.60;3.58;;;20.30;59.40;;;;;;5071079;28;20044;-68
2023/05/07 04:16:17;;;;;;;5.35;3.60;;;20.30;59.40;;;;;;5071170;28;20498;-68
2023/05/07 04:18:43;;;;;;;5.60;3.92;;;20.30;59.40;;;;;;5071635;28;20137;-68
2023/05/07 04:21:19;;;;;;;5.38;3.90;;;20.30;59.40;;;;;;5070636;28;20044;-68
2023/05/07 04:23:45;;;;;;;5.78;4.10;;;20.30;59.30;;;;;;5071545;28;20048;-68
2023/05/07 04:26:11;;;;;;;5.55;3.75;;;20.30;59.30;;;;;;5071542;28;20045;-69
2023/05/07 04:28:36;;;;;;;6.03;4.07;;;20.30;59.40;;;;;;5070634;28;20079;-68
2023/05/07 04:31:02;;;;;;;6.00;3.92;;;20.30;59.40;;;;;;5072329;28;20068;-68
2023/05/07 04:33:27;;;;;;;5.57;3.90;;;20.20;59.30;;;;;;5074683;28;20102;-68
2023/05/07 04:35:53;;;;;;;6.50;4.30;;;20.20;59.30;;;;;;5074487;28;20044;-68
2023/05/07 04:38:18;;;;;;;5.90;3.90;;;20.20;59.30;;;;;;5074699;28;20049;-68
2023/05/07 04:40:44;;;;;;;5.97;4.25;;;20.20;59.20;;;;;;5074203;28;20044;-68
2023/05/07 04:43:10;;;;;;;6.65;3.95;;;20.30;59.30;;;;;;5074827;28;20043;-68
2023/05/07 04:45:36;;;;;;;6.10;3.85;;;20.20;59.20;;;;;;5075004;28;20071;-68
2023/05/07 04:48:02;;;;;;;5.45;4.45;;;20.20;59.20;;;;;;5074347;28;20059;-68
2023/05/07 04:50:27;;;;;;;6.00;4.38;;;20.20;59.20;;;;;;5074749;28;20467;-68
2023/05/07 04:52:53;;;;;;;6.10;3.90;;;20.20;59.10;;;;;;5074526;28;20036;-68
2023/05/07 04:55:18;;;;;;;5.97;4.38;;;20.20;59.10;;;;;;5073985;28;20124;-68
2023/05/07 04:57:45;;;;;;;6.13;4.18;;;20.20;59.80;;;;;;5074455;28;20511;-68
2023/05/07 05:00:13;;;;;;;5.90;4.50;;;20.20;59.20;;;;;;5073478;28;20049;-69
2023/05/07 05:02:39;;;;;;;6.28;4.30;;;20.20;59.10;;;;;;5074034;28;20055;-68
2023/05/07 05:05:05;;;;;;;6.57;4.35;;;20.20;59.10;;;;;;5072297;28;20408;-68
2023/05/07 05:07:31;;;;;;;5.82;4.15;;;20.20;59.10;;;;;;5074509;28;20032;-68
2023/05/07 05:09:57;;;;;;;5.47;3.83;;;20.20;59.10;;;;;;5053802;28;20128;-67
2023/05/07 05:12:23;;;;;;;6.63;4.43;;;20.20;59.10;;;;;;5054140;28;20488;-68
2023/05/07 05:14:48;;;;;;;7.15;4.47;;;20.20;59.10;;;;;;5072363;28;20049;-68
2023/05/07 05:17:14;;;;;;;5.60;4.20;;;20.20;59.10;;;;;;5073350;28;20079;-68
2023/05/07 05:19:39;;;;;;;6.57;4.55;;;20.20;59.10;;;;;;5074368;28;20468;-68
2023/05/07 05:22:05;;;;;;;7.50;4.57;;;20.20;59.10;;;;;;5074369;28;20129;-68
2023/05/07 05:24:31;;;;;;;7.25;4.57;;;20.20;59.10;;;;;;5073268;28;20048;-68
2023/05/07 05:26:56;;;;;;;5.85;4.35;;;20.20;59.10;;;;;;5074090;28;20491;-68
2023/05/07 05:29:22;;;;;;;8.07;4.40;;;20.10;59.00;;;;;;5075806;28;20047;-69
2023/05/07 05:31:48;;;;;;;6.43;4.50;;;20.10;59.00;;;;;;5093777;28;20142;-67
2023/05/07 05:34:13;;;;;;;6.10;4.63;;;20.10;59.00;;;;;;5081067;28;20052;-67
2023/05/07 05:36:39;;;;;;;6.57;4.50;;;20.10;59.00;;;;;;5074175;28;20036;-67
2023/05/07 05:39:04;;;;;;;7.28;4.50;;;20.10;59.10;;;;;;5073209;28;20044;-67
2023/05/07 05:41:30;;;;;;;7.63;4.65;;;20.20;59.90;;;;;;5073511;28;20135;-67
2023/05/07 05:43:55;;;;;;;6.70;4.22;;;20.20;59.30;;;;;;5073401;28;20082;-67
2023/05/07 05:46:21;;;;;;;8.98;4.75;;;20.20;59.30;;;;;;5072128;28;20442;-67
2023/05/07 05:48:47;;;;;;;6.97;4.60;;;20.20;59.20;;;;;;5073737;28;20036;-67
2023/05/07 05:51:12;;;;;;;6.13;3.92;;;20.20;59.20;;;;;;5072803;28;20040;-67
2023/05/07 05:53:38;;;;;;;7.28;4.47;;;20.20;59.20;;;;;;5073467;28;20040;-65
2023/05/07 05:56:04;;;;;;;8.38;4.60;;;20.20;59.20;;;;;;5073403;28;20044;-67
2023/05/07 05:58:29;;;;;;;8.27;4.28;;;20.20;59.10;;;;;;5072618;28;20040;-67
2023/05/07 06:00:56;;;;;;;6.60;4.53;;;20.20;59.20;;;;;;5072405;28;20067;-67
2023/05/07 06:03:21;;;;;;;6.68;4.70;;;20.20;59.20;;;;;;5073036;28;20106;-67
2023/05/07 06:05:47;;;;;;;7.80;4.13;;;20.20;59.30;;;;;;5072605;28;20145;-65
2023/05/07 06:08:13;;;;;;;6.15;4.57;;;20.20;59.40;;;;;;5074581;28;20131;-65
2023/05/07 06:10:38;;;;;;;9.32;4.38;;;20.20;59.60;;;;;;5093515;28;20052;-67
2023/05/07 06:13:04;;;;;;;7.47;4.80;;;20.30;59.80;;;;;;5077543;28;20496;-67
2023/05/07 06:15:30;;;;;;;7.00;4.60;;;20.20;59.80;;;;;;5072449;28;20094;-66
2023/05/07 06:17:57;;;;;;;9.93;4.53;;;20.20;59.80;;;;;;5073156;28;20044;-63
2023/05/07 06:20:23;;;;;;;7.88;4.68;;;20.20;59.80;;;;;;5070742;28;20123;-62
2023/05/07 06:22:48;;;;;;;7.72;5.10;;;20.20;59.80;;;;;;5073444;28;20419;-65
2023/05/07 06:25:14;;;;;;;8.13;4.35;;;20.20;59.80;;;;;;5072443;28;20500;-66
2023/05/07 06:27:39;;;;;;;7.88;4.82;;;20.20;59.70;;;;;;5072203;28;20040;-65
2023/05/07 06:30:06;;;;;;;9.75;5.38;;;20.20;59.80;;;;;;5073071;28;20052;-68
2023/05/07 06:32:31;;;;;;;7.88;4.65;;;20.20;59.80;;;;;;5073049;28;20098;-67
2023/05/07 06:34:57;;;;;;;9.65;5.55;;;20.20;59.90;;;;;;5077162;28;20070;-67
2023/05/07 06:37:22;;;;;;;9.63;5.10;;;20.20;59.90;;;;;;5092326;28;20059;-67
2023/05/07 06:39:48;;;;;;;5.75;4.35;;;20.30;60.00;;;;;;5078554;28;20124;-66
2023/05/07 06:42:14;;;;;;;7.20;4.80;;;20.20;60.00;;;;;;5071945;28;20048;-66
2023/05/07 06:44:39;;;;;;;7.70;4.70;;;20.20;60.00;;;;;;5072818;28;20041;-68
2023/05/07 06:47:05;;;;;;;6.60;4.68;;;20.20;60.00;;;;;;5072680;28;20044;-67
2023/05/07 06:49:31;;;;;;;9.45;4.97;;;20.20;60.00;;;;;;5071657;28;20037;-66
2023/05/07 06:51:57;;;;;;;6.50;4.75;;;20.20;60.00;;;;;;5072970;28;20043;-68
2023/05/07 06:54:22;;;;;;;9.00;4.65;;;20.20;60.00;;;;;;5069689;28;20137;-66
2023/05/07 06:56:48;;;;;;;7.75;4.85;;;20.30;60.10;;;;;;5072538;28;20037;-66
2023/05/07 06:59:13;;;;;;;7.75;5.00;;;20.20;60.00;;;;;;5071873;28;20044;-65
2023/05/07 07:01:39;;;;;;;8.93;5.13;;;20.20;60.00;;;;;;5071659;28;20059;-65
2023/05/07 07:04:05;;;;;;;8.75;4.70;;;20.30;60.10;;;;;;5071833;28;20084;-66
2023/05/07 07:06:31;;;;;;;8.63;4.50;;;20.30;60.10;;;;;;5072151;28;20074;-65
2023/05/07 07:08:58;;;;;;;8.52;4.90;;;20.30;60.20;;;;;;5072962;28;20041;-66
2023/05/07 07:11:23;;;;;;;7.38;4.45;;;20.30;60.20;;;;;;5071597;28;20059;-66
2023/05/07 07:13:50;;;;;;;8.15;5.22;;;20.30;60.20;;;;;;5069711;28;20468;-65
2023/05/07 07:16:16;;;;;;;7.63;5.03;;;20.30;60.20;;;;;;5070944;28;20095;-66
2023/05/07 07:18:41;;;;;;;6.25;4.80;;;20.30;60.30;;;;;;5071129;28;20072;-66
2023/05/07 07:21:07;;;;;;;7.68;4.85;;;20.30;60.30;;;;;;5060161;28;20506;-66
2023/05/07 07:23:32;;;;;;;7.60;5.25;;;20.30;60.40;;;;;;5051875;28;20451;-66
2023/05/07 07:25:58;;;;;;;10.20;5.00;;;20.30;60.40;;;;;;5070342;28;20499;-66
2023/05/07 07:28:23;;;;;;;9.68;5.57;;;20.30;60.50;;;;;;5070345;28;20044;-66
2023/05/07 07:30:49;;;;;;;7.90;5.15;;;20.30;60.40;;;;;;5070730;28;20143;-66
2023/05/07 07:33:15;;;;;;;8.50;5.10;;;20.30;60.50;;;;;;5071198;28;20071;-67
2023/05/07 07:35:40;;;;;;;7.80;5.18;;;20.30;60.50;;;;;;5071658;28;20108;-66
2023/05/07 07:38:06;;;;;;;8.50;5.35;;;20.30;60.50;;;;;;5071072;28;20151;-67
2023/05/07 07:40:31;;;;;;;9.18;5.50;;;20.30;60.40;;;;;;5071908;28;20156;-67
2023/05/07 07:42:57;;;;;;;8.07;5.45;;;20.30;60.40;;;;;;5070867;28;20102;-69
2023/05/07 07:45:23;;;;;;;7.93;5.15;;;20.30;60.50;;;;;;5071121;28;20488;-69
2023/05/07 07:47:48;;;;;;;8.48;5.47;;;20.30;60.60;;;;;;5072299;28;20484;-67
2023/05/07 07:50:14;;;;;;;7.90;5.35;;;20.30;60.60;;;;;;5071457;28;20135;-67
2023/05/07 07:52:40;;;;;;;8.68;5.28;;;20.40;60.70;;;;;;5070948;28;20063;-66
2023/05/07 07:55:06;;;;;;;6.93;4.95;;;20.40;60.70;;;;;;5071363;28;20127;-67
2023/05/07 07:57:32;;;;;;;8.30;5.20;;;20.40;60.70;;;;;;5071938;28;20155;-67
2023/05/07 07:59:58;;;;;;;7.50;5.45;;;20.40;60.70;;;;;;5080697;28;20131;-68
2023/05/07 08:02:23;;;;;;;7.75;5.47;;;20.40;60.70;;;;;;5091426;28;20439;-67
2023/05/07 08:04:49;;;;;;;7.70;5.45;;;20.40;60.70;;;;;;5078937;28;20052;-66
2023/05/07 08:07:15;;;;;;;7.60;5.28;;;20.40;60.60;;;;;;5074003;28;20437;-66
2023/05/07 08:09:40;;;;;;;8.98;5.35;;;20.40;60.60;;;;;;5075113;28;20036;-66
2023/05/07 08:12:06;;;;;;;9.80;5.38;;;20.40;60.50;;;;;;5074315;28;20040;-67
2023/05/07 08:14:32;;;;;;;7.30;5.05;;;20.40;60.40;;;;;;5073186;28;20458;-66
2023/05/07 08:16:57;;;;;;;7.78;5.35;;;20.40;60.40;;;;;;5074477;28;20484;-67
2023/05/07 08:19:23;;;;;;;7.95;5.68;;;20.40;60.30;;;;;;5073256;28;20087;-66
2023/05/07 08:21:48;;;;;;;7.82;5.32;;;20.40;60.30;;;;;;5075222;28;20053;-67
2023/05/07 08:24:14;;;;;;;7.07;5.07;;;20.40;60.30;;;;;;5074642;28;20083;-67
2023/05/07 08:26:40;;;;;;;7.43;5.13;;;20.40;60.20;;;;;;5074722;28;20047;-67
2023/05/07 08:29:06;;;;;;;6.97;5.10;;;20.40;60.30;;;;;;5075055;28;20052;-68
2023/05/07 08:31:32;;;;;;;8.68;5.47;;;20.40;60.20;;;;;;5075317;28;20136;-67
2023/05/07 08:33:57;;;;;;;8.40;5.70;;;20.40;60.20;;;;;;5074423;28;20040;-68
2023/05/07 08:36:23;;;;;;;6.90;4.88;;;20.40;60.20;;;;;;5074690;28;20051;-68
2023/05/07 08:38:49;;;;;;;7.65;5.30;;;20.40;60.20;;;;;;5075017;28;20056;-68
2023/05/07 08:41:15;;;;;;;7.93;5.38;;;20.40;60.20;;;;;;5074395;28;20079;-68
2023/05/07 08:43:41;;;;;;;8.75;5.45;;;20.40;60.20;;;;;;5074099;28;20037;-67
2023/05/07 08:46:08;;;;;;;7.95;5.45;;;20.40;60.10;;;;;;5074550;28;20047;-68
2023/05/07 08:48:34;;;;;;;7.53;5.20;;;20.40;60.10;;;;;;5073214;28;20049;-72
2023/05/07 08:50:59;;;;;;;8.88;5.53;;;20.40;60.00;;;;;;5053293;28;20040;-67
2023/05/07 08:53:25;;;;;;;8.43;5.80;;;20.40;60.10;;;;;;5070039;28;21075;-68
2023/05/07 08:55:51;;;;;;;11.13;5.75;;;20.40;60.10;;;;;;5071286;28;20128;-67
2023/05/07 08:58:16;;;;;;;7.65;5.20;;;20.40;60.10;;;;;;5074653;28;20414;-71
2023/05/07 09:00:42;;;;;;;9.73;5.55;;;20.40;60.10;;;;;;5074424;28;20049;-70
2023/05/07 09:03:08;;;;;;;12.30;6.20;;;20.40;60.20;;;;;;5074024;28;20048;-69
2023/05/07 09:05:33;;;;;;;9.95;6.05;;;20.40;60.30;;;;;;5074346;28;20047;-71
2023/05/07 09:08:00;;;;;;;9.88;5.93;;;20.50;60.50;;;;;;5074076;28;20033;-69
2023/05/07 09:10:25;;;;;;;9.50;6.05;;;20.50;60.60;;;;;;5073861;28;20639;-70
2023/05/07 09:12:51;;;;;;;9.18;6.00;;;20.50;60.60;;;;;;5074187;28;20520;-67
2023/05/07 09:15:17;;;;;;;9.15;5.65;;;20.50;60.70;;;;;;5073058;28;20539;-67
2023/05/07 09:17:43;;;;;;;13.00;6.18;;;20.60;60.70;;;;;;5072977;28;20083;-66
2023/05/07 09:20:09;;;;;;;9.18;5.70;;;20.60;60.60;;;;;;5072600;28;20072;-68
2023/05/07 09:22:38;;;;;;;9.75;6.05;;;20.60;60.90;;;;;;5071670;28;20526;-68
2023/05/07 09:25:04;;;;;;;13.88;6.28;;;20.70;60.80;;;;;;5073990;28;20064;-69
2023/05/07 09:27:30;;;;;;;10.30;6.30;;;20.60;60.90;;;;;;5074190;28;20115;-67
2023/05/07 09:29:56;;;;;;;9.40;6.25;;;20.70;61.00;;;;;;5073687;28;20048;-67
2023/05/07 09:32:21;;;;;;;9.88;6.30;;;20.70;61.00;;;;;;5074204;28;20040;-66
2023/05/07 09:34:47;;;;;;;8.80;5.80;;;20.70;60.90;;;;;;5073623;28;20044;-68
2023/05/07 09:37:12;;;;;;;14.25;6.30;;;20.70;60.90;;;;;;5072788;28;20519;-67
2023/05/07 09:39:42;;;;;;;12.57;6.40;;;20.70;60.90;;;;;;5074003;28;20039;-67
2023/05/07 09:42:07;;;;;;;10.68;6.10;;;20.70;61.00;;;;;;5073405;28;20045;-66
2023/05/07 09:44:34;;;;;;;11.38;6.13;;;20.80;61.00;;;;;;5072918;28;20105;-68
2023/05/07 09:47:00;;;;;;;10.68;6.25;;;20.80;61.00;;;;;;5072469;28;20083;-67
2023/05/07 09:49:27;;;;;;;8.43;5.80;;;20.80;61.00;;;;;;5072771;28;20048;-68
2023/05/07 09:51:52;;;;;;;8.80;6.32;;;20.80;61.00;;;;;;5076472;28;20036;-68
2023/05/07 09:54:18;;;;;;;13.20;5.90;;;20.80;61.00;;;;;;5075779;28;20059;-69
2023/05/07 09:56:45;;;;;;;8.25;5.80;;;20.80;61.00;;;;;;5073052;28;20049;-69
2023/05/07 09:59:13;;;;;;;9.10;6.10;;;20.80;61.00;;;;;;5072267;28;20062;-68
2023/05/07 10:01:39;;;;;;;;;;;20.90;61.00;;;;;;5053697;28;20049;-68
2023/05/07 10:04:04;;;;;;;10.52;5.53;;;20.90;60.90;;;;;;5051821;28;20498;-67
2023/05/07 10:06:30;;;;;;;10.35;6.35;;;20.90;60.80;;;;;;5070680;28;20040;-67
2023/05/07 10:08:56;;;;;;;8.23;5.75;;;20.90;60.70;;;;;;5073485;28;20047;-67
2023/05/07 10:11:22;;;;;;;8.60;5.35;;;20.90;60.60;;;;;;5071172;28;20049;-67
2023/05/07 10:13:47;;;;;;;8.80;5.85;;;20.90;60.70;;;;;;5072294;28;20044;-71
2023/05/07 10:16:13;;;;;;;8.40;5.63;;;20.90;60.60;;;;;;5070614;28;20074;-68
2023/05/07 10:18:38;;;;;;;9.07;5.63;;;21.00;60.80;;;;;;5070189;28;20044;-69
2023/05/07 10:21:08;;;;;;;11.23;5.88;;;21.00;60.80;;;;;;5072469;28;20044;-69
2023/05/07 10:23:33;;;;;;;12.55;6.50;;;21.00;61.00;;;;;;5072726;28;20041;-69
2023/05/07 10:26:03;;;;;;;12.13;6.00;;;21.00;61.00;;;;;;5069785;28;20098;-69
2023/05/07 10:28:31;;;;;;;9.65;5.72;;;21.00;61.10;;;;;;5070691;28;20051;-70
2023/05/07 10:31:10;;;;;;;9.85;5.72;;;21.00;61.10;;;;;;5070767;28;20113;-70
2023/05/07 10:33:35;;;;;;;10.25;5.85;;;21.00;61.20;;;;;;5069157;28;20115;-71
2023/05/07 10:36:02;;;;;;;9.15;5.60;;;21.00;61.10;;;;;;5072152;28;20123;-71
2023/05/07 10:38:28;;;;;;;9.02;5.63;;;21.00;61.10;;;;;;5071744;28;20047;-71
2023/05/07 10:40:54;;;;;;;10.38;5.82;;;21.00;61.00;;;;;;5063110;28;20119;-69
2023/05/07 10:43:19;;;;;;;10.48;5.90;;;21.10;61.10;;;;;;5048804;28;20044;-69
2023/05/07 10:46:16;;;;;;;8.82;6.20;;;21.10;61.10;;;;;;5070740;28;20471;-70
2023/05/07 10:49:00;;;;;;;9.13;5.80;;;21.10;61.10;;;;;;5071136;28;20072;-70
2023/05/07 10:51:26;;;;;;;8.88;5.90;;;21.10;61.00;;;;;;5071846;28;20590;-70
2023/05/07 10:54:10;;;;;;;9.93;5.72;;;21.10;61.20;;;;;;5069372;28;20044;-69
2023/05/07 10:56:37;;;;;;;10.18;5.20;;;21.10;61.10;;;;;;5068708;28;20074;-68
2023/05/07 10:59:33;;;;;;;8.55;5.50;;;21.10;61.20;;;;;;5071687;28;20067;-68
2023/05/07 11:02:02;;;;;;;8.90;5.55;;;21.10;61.10;;;;;;5066660;28;20055;-73
2023/05/07 11:04:31;;;;;;;9.02;5.82;;;21.10;61.20;;;;;;5071563;28;20123;-66
2023/05/07 11:07:08;;;;;;;9.38;5.32;;;21.10;61.10;;;;;;5071678;28;20106;-66
2023/05/07 11:09:52;;;;;;;10.30;5.53;;;21.10;61.10;;;;;;5071092;28;20435;-69
2023/05/07 11:12:38;;;;;;;9.63;5.40;;;21.10;61.10;;;;;;5066584;28;20078;-66
2023/05/07 11:15:08;;;;;;;8.32;5.57;;;21.20;61.30;;;;;;5066725;28;20427;-68
2023/05/07 11:17:34;;;;;;;9.25;5.10;;;21.20;61.20;;;;;;5072101;28;20044;-68
2023/05/07 11:20:01;;;;;;;8.43;5.05;;;21.20;61.20;;;;;;5071412;28;20048;-68
2023/05/07 11:22:32;;;;;;;9.77;5.72;;;21.20;61.10;;;;;;5070823;28;20495;-68
2023/05/07 11:25:05;;;;;;;9.93;5.95;;;21.20;61.10;;;;;;5070299;28;20060;-69
2023/05/07 11:27:31;;;;;;;9.20;5.63;;;21.20;61.10;;;;;;5058786;28;20060;-68
2023/05/07 11:29:56;;;;;;;7.00;4.88;;;21.20;61.10;;;;;;5069834;28;20036;-68
2023/05/07 11:32:31;;;;;;;7.55;5.18;;;21.20;61.10;;;;;;5071499;28;20045;-67
2023/05/07 11:34:58;;;;;;;9.27;5.10;;;21.30;61.10;;;;;;5071420;28;20131;-66
2023/05/07 11:37:24;;;;;;;9.18;5.18;;;21.30;61.20;;;;;;5070344;28;20052;-65
2023/05/07 11:39:54;;;;;;;8.38;5.43;;;21.30;61.10;;;;;;5071669;28;20048;-69
2023/05/07 11:42:31;;;;;;;9.23;4.93;;;21.30;61.00;;;;;;5064574;28;20051;-68
2023/05/07 11:44:57;;;;;;;8.40;4.93;;;21.30;61.10;;;;;;5074706;28;20073;-67
2023/05/07 11:47:22;;;;;;;7.57;5.10;;;21.30;61.00;;;;;;5075339;28;20048;-68
2023/05/07 11:49:49;;;;;;;8.27;5.20;;;21.30;61.10;;;;;;5074540;28;20031;-67
2023/05/07 11:52:15;;;;;;;6.90;5.53;;;21.30;61.00;;;;;;5075351;28;20040;-67
2023/05/07 11:54:41;;;;;;;8.13;5.05;;;21.30;61.10;;;;;;5075096;28;20063;-69
2023/05/07 11:57:07;;;;;;;6.22;4.65;;;21.30;61.00;;;;;;5073961;28;20084;-66
2023/05/07 11:59:44;;;;;;;10.05;5.03;;;21.40;61.00;;;;;;5075762;28;20510;-68
2023/05/07 12:02:09;;;;;;;9.25;5.40;;;21.40;61.00;;;;;;5075196;28;20037;-68
2023/05/07 12:04:35;;;;;;;8.15;4.85;;;21.40;60.90;;;;;;5074345;28;20514;-67
2023/05/07 12:07:01;;;;;;;8.05;5.28;;;21.40;61.00;;;;;;5074837;28;20072;-68
2023/05/07 12:09:26;;;;;;;6.28;5.20;;;21.40;60.90;;;;;;5071436;28;20055;-68
2023/05/07 12:11:52;;;;;;;8.10;5.32;;;21.40;60.90;;;;;;5068796;28;20044;-65
2023/05/07 12:14:18;;;;;;;7.97;5.15;;;21.40;60.90;;;;;;5074320;28;20037;-66
2023/05/07 12:16:44;;;;;;;7.63;5.20;;;21.40;60.80;;;;;;5073645;28;20055;-67
2023/05/07 12:19:12;;;;;;;7.38;5.10;;;21.40;60.80;;;;;;5053547;28;20395;-66
2023/05/07 12:21:38;;;;;;;8.48;5.20;;;21.50;60.80;;;;;;5066812;28;20352;-70
2023/05/07 12:24:04;;;;;;;8.90;5.78;;;21.50;60.80;;;;;;5071644;28;20484;-70
2023/05/07 12:26:30;;;;;;;8.60;6.00;;;21.50;60.70;;;;;;5073540;28;20048;-70
2023/05/07 12:28:56;;;;;;;11.00;5.85;;;21.50;60.60;;;;;;5074985;28;20056;-68
2023/05/07 12:31:22;;;;;;;8.55;5.32;;;21.50;60.50;;;;;;5073122;28;20068;-69
2023/05/07 12:33:47;;;;;;;10.38;6.00;;;21.40;60.40;;;;;;5074274;28;20076;-69
2023/05/07 12:36:13;;;;;;;9.35;6.85;;;21.50;60.30;;;;;;5073617;28;20059;-69
2023/05/07 12:38:40;;;;;;;10.88;6.38;;;21.50;60.20;;;;;;5074825;28;20040;-70
2023/05/07 12:41:07;;;;;;;8.68;5.78;;;21.50;60.20;;;;;;5073267;28;20051;-68